Time;durP1;ratioP1;P1;durP2;ratioP2;P2;SDS_P1;SDS_P2;PMS_P1;PMS_P2;Temp;Humidity;BMP_temperature;BMP_pressure;BME280_temperature;BME280_humidity;BME280_pressure;Samples;Min_cycle;Max_cycle;Signal;HPM_P1;HPM_P2
2023/01/25 00:00:38;;;;;;;;;;;2.00;80.10;;;;;;5032125;28;19913;-80
2023/01/25 00:03:04;;;;;;;;;;;2.00;80.20;;;;;;5026041;28;19969;-80
2023/01/25 00:05:29;;;;;;;;;;;2.00;80.20;;;;;;5027925;28;19920;-81
2023/01/25 00:07:54;;;;;;;;;;;2.00;80.40;;;;;;5034693;28;19917;-81
2023/01/25 00:10:20;;;;;;;;;;;2.10;80.30;;;;;;5046623;28;19975;-81
2023/01/25 00:12:45;;;;;;;;;;;1.90;80.10;;;;;;5053384;28;19921;-81
2023/01/25 00:15:11;;;;;;;;;;;1.90;79.50;;;;;;5049835;22;19956;-79
2023/01/25 00:17:36;;;;;;;;;;;1.90;79.40;;;;;;5052597;28;19995;-79
2023/01/25 00:20:02;;;;;;;;;;;1.80;79.70;;;;;;5037351;28;20018;-79
2023/01/25 00:22:28;;;;;;;;;;;1.80;80.00;;;;;;5033041;28;19925;-78
2023/01/25 00:24:53;;;;;;;;;;;1.80;79.90;;;;;;5034690;28;20283;-79
2023/01/25 00:27:18;;;;;;;;;;;1.80;80.20;;;;;;5033604;28;19991;-78
2023/01/25 00:29:44;;;;;;;;;;;2.00;79.70;;;;;;5029528;28;19913;-78
2023/01/25 00:32:09;;;;;;;;;;;2.00;79.70;;;;;;5032898;28;19939;-78
2023/01/25 00:34:42;;;;;;;;;;;2.00;79.40;;;;;;5035259;28;20031;-78
2023/01/25 00:37:12;;;;;;;;;;;1.80;79.70;;;;;;5032308;28;20016;-78
2023/01/25 00:39:38;;;;;;;;;;;1.80;80.00;;;;;;5035406;28;19924;-78
2023/01/25 00:42:04;;;;;;;;;;;1.80;80.60;;;;;;5031622;28;19913;-79
2023/01/25 00:44:29;;;;;;;;;;;1.80;80.70;;;;;;5034826;28;19955;-78
2023/01/25 00:46:55;;;;;;;;;;;1.70;80.80;;;;;;5035555;28;19967;-79
2023/01/25 00:49:21;;;;;;;;;;;1.70;80.70;;;;;;5037897;28;19919;-79
2023/01/25 00:51:47;;;;;;;;;;;1.80;80.80;;;;;;5035937;28;19943;-79
2023/01/25 00:54:13;;;;;;;;;;;1.90;80.60;;;;;;5035050;28;20594;-79
2023/01/25 00:56:38;;;;;;;;;;;1.80;80.20;;;;;;5033100;28;19967;-79
2023/01/25 00:59:03;;;;;;;;;;;1.70;80.50;;;;;;5033769;28;19917;-80
2023/01/25 01:01:29;;;;;;;;;;;1.70;80.50;;;;;;5034576;28;19924;-80
2023/01/25 01:03:54;;;;;;;;;;;1.80;80.10;;;;;;5051567;28;19912;-79
2023/01/25 01:06:20;;;;;;;;;;;1.90;79.80;;;;;;5040000;28;20043;-80
2023/01/25 01:08:45;;;;;;;;;;;1.90;80.30;;;;;;5039389;28;19982;-78
2023/01/25 01:11:11;;;;;;;;;;;1.90;80.00;;;;;;5030082;28;19914;-79
2023/01/25 01:13:37;;;;;;;;;;;1.90;79.80;;;;;;5038387;28;19917;-79
2023/01/25 01:16:04;;;;;;;;;;;1.90;79.60;;;;;;5039910;28;20406;-78
2023/01/25 01:18:34;;;;;;;;;;;1.80;79.90;;;;;;5037615;28;20273;-79
2023/01/25 01:21:00;;;;;;;;;;;1.80;79.90;;;;;;5026763;28;19909;-79
2023/01/25 01:23:26;;;;;;;;;;;1.90;80.40;;;;;;5036640;28;19917;-79
2023/01/25 01:25:52;;;;;;;;;;;1.90;80.10;;;;;;5029158;28;19913;-79
2023/01/25 01:28:17;;;;;;;;;;;1.80;80.00;;;;;;5033489;28;19920;-80
2023/01/25 01:30:43;;;;;;;;;;;1.70;80.10;;;;;;5031127;28;20098;-79
2023/01/25 01:33:08;;;;;;;;;;;1.80;80.20;;;;;;5034173;28;19922;-79
2023/01/25 01:35:34;;;;;;;;;;;1.90;79.90;;;;;;5040470;28;20386;-79
2023/01/25 01:37:59;;;;;;;;;;;1.90;79.70;;;;;;5020968;28;20407;-79
2023/01/25 01:40:25;;;;;;;;;;;1.80;80.20;;;;;;5041181;28;19928;-79
2023/01/25 01:43:04;;;;;;;;;;;1.70;80.10;;;;;;5038829;28;19912;-79
2023/01/25 01:45:42;;;;;;;;;;;1.70;80.30;;;;;;5044755;28;20011;-80
2023/01/25 01:48:14;;;;;;;;;;;1.70;80.20;;;;;;5046568;28;20316;-79
2023/01/25 01:50:39;;;;;;;;;;;1.60;80.50;;;;;;5030636;28;19913;-78
2023/01/25 01:53:05;;;;;;;;;;;1.70;80.00;;;;;;5040601;28;19917;-78
2023/01/25 01:55:30;;;;;;;;;;;1.70;80.20;;;;;;5034820;28;19913;-79
2023/01/25 01:57:57;;;;;;;;;;;1.70;80.00;;;;;;5047245;28;19935;-79
2023/01/25 02:00:25;;;;;;;;;;;1.60;80.10;;;;;;5033237;28;19909;-79
2023/01/25 02:02:51;;;;;;;;;;;1.60;80.40;;;;;;5036842;28;19920;-79
2023/01/25 02:05:19;;;;;;;;;;;1.50;80.60;;;;;;5039449;28;19961;-79
2023/01/25 02:07:46;;;;;;;;;;;1.50;80.40;;;;;;5038232;28;19917;-79
2023/01/25 02:10:11;;;;;;;;;;;1.50;81.00;;;;;;5048213;28;20339;-79
2023/01/25 02:12:37;;;;;;;;;;;1.50;80.50;;;;;;5042319;28;19909;-79
2023/01/25 02:15:03;;;;;;;;;;;1.60;80.20;;;;;;5036783;28;20888;-78
2023/01/25 02:17:29;;;;;;;;;;;1.60;80.60;;;;;;5042144;28;19925;-79
2023/01/25 02:19:55;;;;;;;;;;;1.60;80.50;;;;;;5028733;28;19975;-78
2023/01/25 02:22:24;;;;;;;;;;;1.60;80.90;;;;;;5029845;28;19921;-78
2023/01/25 02:24:56;;;;;;;;;;;1.60;80.30;;;;;;5015305;28;19913;-78
2023/01/25 02:27:21;;;;;;;;;;;1.60;80.60;;;;;;5038466;28;19917;-80
2023/01/25 02:29:47;;;;;;;;;;;1.60;80.30;;;;;;5037246;28;19913;-78
2023/01/25 02:32:12;;;;;;;;;;;1.60;80.70;;;;;;5008054;28;19913;-78
2023/01/25 02:34:38;;;;;;;;;;;1.60;80.10;;;;;;5014081;28;20012;-78
2023/01/25 02:37:03;;;;;;;;;;;1.60;80.00;;;;;;5028942;28;19924;-79
2023/01/25 02:39:30;;;;;;;;;;;1.60;80.20;;;;;;5024092;28;20416;-78
2023/01/25 02:41:56;;;;;;;;;;;1.80;80.00;;;;;;5035034;28;19972;-77
2023/01/25 02:44:29;;;;;;;;;;;1.70;79.50;;;;;;5049170;28;19917;-78
2023/01/25 02:46:55;;;;;;;;;;;1.60;79.50;;;;;;5039718;28;20381;-78
2023/01/25 02:49:20;;;;;;;;;;;1.50;80.00;;;;;;5040396;28;19919;-79
2023/01/25 02:51:47;;;;;;;;;;;1.50;80.20;;;;;;5014337;28;19992;-78
2023/01/25 02:54:14;;;;;;;;;;;1.50;79.90;;;;;;5035410;28;19916;-78
2023/01/25 02:56:39;;;;;;;;;;;1.60;80.10;;;;;;5030386;28;19947;-78
2023/01/25 02:59:05;;;;;;;;;;;1.50;80.60;;;;;;5039169;28;19917;-79
2023/01/25 03:01:34;;;;;;;;;;;1.50;80.70;;;;;;5027814;28;19956;-78
2023/01/25 03:04:00;;;;;;;;;;;1.50;80.60;;;;;;5024922;28;19966;-78
2023/01/25 03:06:25;;;;;;;;;;;1.50;80.60;;;;;;5029806;28;19913;-78
2023/01/25 03:08:51;;;;;;;;;;;1.50;80.50;;;;;;5006076;28;19921;-78
2023/01/25 03:11:16;;;;;;;;;;;1.50;80.70;;;;;;5029698;28;19917;-79
2023/01/25 03:13:42;;;;;;;;;;;1.50;80.80;;;;;;5010373;28;19927;-79
2023/01/25 03:16:09;;;;;;;;;;;1.60;80.90;;;;;;5028423;28;19925;-78
2023/01/25 03:18:35;;;;;;;;;;;1.60;79.70;;;;;;5031630;28;19917;-78
2023/01/25 03:21:17;;;;;;;;;;;1.60;79.90;;;;;;5011519;28;20495;-79
2023/01/25 03:23:43;;;;;;;;;;;1.50;79.90;;;;;;5034164;28;20264;-78
2023/01/25 03:26:09;;;;;;;;;;;1.50;80.60;;;;;;5032118;28;19928;-78
2023/01/25 03:28:34;;;;;;;;;;;1.40;80.90;;;;;;5022927;28;20257;-78
2023/01/25 03:31:00;;;;;;;;;;;1.60;80.60;;;;;;5026395;28;19959;-78
2023/01/25 03:33:25;;;;;;;;;;;1.60;79.90;;;;;;5027335;28;19924;-78
2023/01/25 03:35:51;;;;;;;;;;;1.50;79.80;;;;;;5034908;28;19921;-79
2023/01/25 03:38:19;;;;;;;;;;;1.50;80.20;;;;;;5032731;28;20314;-79
2023/01/25 03:40:45;;;;;;;;;;;1.50;80.50;;;;;;5036077;28;19917;-79
2023/01/25 03:43:10;;;;;;;;;;;1.50;80.50;;;;;;5026040;28;20530;-79
2023/01/25 03:45:35;;;;;;;;;;;1.50;80.00;;;;;;5019805;28;19921;-79
2023/01/25 03:48:02;;;;;;;;;;;1.40;80.30;;;;;;5021600;28;20269;-79
2023/01/25 03:50:27;;;;;;;;;;;1.40;80.20;;;;;;5043060;28;19917;-80
2023/01/25 03:53:00;;;;;;;;;;;1.30;80.50;;;;;;5021699;28;19919;-79
2023/01/25 03:55:25;;;;;;;;;;;1.30;81.00;;;;;;5029338;28;19925;-77
2023/01/25 03:57:51;;;;;;;;;;;1.40;80.60;;;;;;5023836;28;19920;-78
2023/01/25 04:00:16;;;;;;;;;;;1.40;80.50;;;;;;5022962;28;20372;-79
2023/01/25 04:02:42;;;;;;;;;;;1.40;80.90;;;;;;5007177;28;20004;-78
2023/01/25 04:05:07;;;;;;;;;;;1.50;80.80;;;;;;5029158;28;19967;-79
2023/01/25 04:07:33;;;;;;;;;;;1.50;80.30;;;;;;5027655;28;19913;-79
2023/01/25 04:09:58;;;;;;;;;;;1.60;80.70;;;;;;5016717;28;19971;-77
2023/01/25 04:12:24;;;;;;;;;;;1.50;80.90;;;;;;5022598;28;19922;-79
2023/01/25 04:14:49;;;;;;;;;;;1.50;80.90;;;;;;5005197;28;19953;-78
2023/01/25 04:17:15;;;;;;;;;;;1.50;80.70;;;;;;5010151;28;20237;-79
2023/01/25 04:19:40;;;;;;;;;;;1.50;81.00;;;;;;5008233;28;19923;-79
2023/01/25 04:22:05;;;;;;;;;;;1.50;81.00;;;;;;5015727;28;19913;-78
2023/01/25 04:24:31;;;;;;;;;;;1.40;81.40;;;;;;5027331;28;20012;-78
2023/01/25 04:26:56;;;;;;;;;;;1.30;81.60;;;;;;5035966;28;19924;-78
2023/01/25 04:29:22;;;;;;;;;;;1.30;81.60;;;;;;5021583;28;19963;-79
2023/01/25 04:31:47;;;;;;;;;;;1.30;81.60;;;;;;5025193;28;19917;-79
2023/01/25 04:34:13;;;;;;;;;;;1.30;81.80;;;;;;5038511;28;19920;-80
2023/01/25 04:36:38;;;;;;;;;;;1.30;81.80;;;;;;5029120;28;20289;-77
2023/01/25 04:39:03;;;;;;;;;;;1.30;81.90;;;;;;5021967;28;20060;-77
2023/01/25 04:41:29;;;;;;;;;;;1.10;82.00;;;;;;5026246;28;19914;-79
2023/01/25 04:43:55;;;;;;;;;;;1.00;82.10;;;;;;5028759;28;20364;-77
2023/01/25 04:46:20;;;;;;;;;;;1.10;82.80;;;;;;5037016;28;19960;-79
2023/01/25 04:48:46;;;;;;;;;;;1.10;82.40;;;;;;5034358;28;19959;-79
2023/01/25 04:51:13;;;;;;;;;;;1.20;82.50;;;;;;5011403;28;19967;-80
2023/01/25 04:53:38;;;;;;;;;;;1.30;82.20;;;;;;5028691;28;19971;-77
2023/01/25 04:56:04;;;;;;;;;;;1.20;82.50;;;;;;5029521;28;19921;-79
2023/01/25 04:58:29;;;;;;;;;;;1.30;82.50;;;;;;5028411;28;19956;-79
2023/01/25 05:00:59;;;;;;;;;;;1.50;82.30;;;;;;5029093;28;20405;-78
2023/01/25 05:03:24;;;;;;;;;;;1.40;82.10;;;;;;5029456;28;19917;-79
2023/01/25 05:05:49;;;;;;;;;;;1.30;82.20;;;;;;5013322;28;20383;-79
2023/01/25 05:08:15;;;;;;;;;;;1.30;82.70;;;;;;5029638;28;20300;-78
2023/01/25 05:10:40;;;;;;;;;;;1.20;83.00;;;;;;5030527;28;19913;-77
2023/01/25 05:13:06;;;;;;;;;;;1.20;83.20;;;;;;5026847;28;19967;-79
2023/01/25 05:15:31;;;;;;;;;;;1.10;83.20;;;;;;5034751;28;20419;-77
2023/01/25 05:17:57;;;;;;;;;;;1.00;83.50;;;;;;5032275;28;19917;-78
2023/01/25 05:20:22;;;;;;;;;;;0.90;84.10;;;;;;5027175;28;19917;-79
2023/01/25 05:22:47;;;;;;;;;;;0.90;84.30;;;;;;5032094;28;19916;-79
2023/01/25 05:27:57;;;;;;;;;;;1.00;84.60;;;;;;5026089;28;19924;-78
2023/01/25 05:30:23;;;;;;;;;;;1.10;84.40;;;;;;5040753;28;19913;-79
2023/01/25 05:32:49;;;;;;;;;;;1.10;84.10;;;;;;5034236;28;19921;-79
2023/01/25 05:35:14;;;;;;;;;;;1.20;84.10;;;;;;5024420;28;19917;-80
2023/01/25 05:37:40;;;;;;;;;;;1.20;83.80;;;;;;5028960;28;19924;-79
2023/01/25 05:40:06;;;;;;;;;;;1.10;84.20;;;;;;5032897;28;19920;-79
2023/01/25 05:42:31;;;;;;;;;;;1.10;84.10;;;;;;5027520;28;19913;-80
2023/01/25 05:44:56;;;;;;;;;;;1.10;84.10;;;;;;5026489;28;19944;-78
2023/01/25 05:47:22;;;;;;;;;;;1.20;84.10;;;;;;5021735;28;20044;-79
2023/01/25 05:49:47;;;;;;;;;;;1.10;84.10;;;;;;5026479;28;19924;-80
2023/01/25 05:52:13;;;;;;;;;;;1.20;84.30;;;;;;5042089;28;19909;-79
2023/01/25 05:54:39;;;;;;;;;;;1.10;84.20;;;;;;5013568;28;19917;-78
2023/01/25 05:57:04;;;;;;;;;;;1.10;84.50;;;;;;5023917;28;19921;-77
2023/01/25 05:59:30;;;;;;;;;;;1.10;84.50;;;;;;5027415;28;19917;-78
2023/01/25 06:01:55;;;;;;;;;;;1.20;84.50;;;;;;5022919;28;20397;-78
2023/01/25 06:04:21;;;;;;;;;;;1.30;84.50;;;;;;5032858;28;19936;-79
2023/01/25 06:06:46;;;;;;;;;;;1.20;84.30;;;;;;5021257;28;19936;-79
2023/01/25 06:09:12;;;;;;;;;;;1.30;84.10;;;;;;5027080;28;19917;-79
2023/01/25 06:11:38;;;;;;;;;;;1.40;84.20;;;;;;5026503;28;19917;-80
2023/01/25 06:14:03;;;;;;;;;;;1.20;84.20;;;;;;5067748;22;20156;-82
2023/01/25 06:16:29;;;;;;;;;;;1.10;84.60;;;;;;5068302;28;20008;-82
2023/01/25 06:18:54;;;;;;;;;;;1.10;84.50;;;;;;5051295;28;19921;-82
2023/01/25 06:21:20;;;;;;;;;;;1.10;84.60;;;;;;5056918;28;19920;-82
2023/01/25 06:23:45;;;;;;;;;;;1.20;84.70;;;;;;5060594;28;20278;-82
2023/01/25 06:26:12;;;;;;;;;;;1.20;84.60;;;;;;5069211;28;19952;-82
2023/01/25 06:28:38;;;;;;;;;;;1.30;84.40;;;;;;5072268;28;19939;-82
2023/01/25 06:31:11;;;;;;;;;;;1.10;84.60;;;;;;5051717;28;20355;-83
2023/01/25 06:33:36;;;;;;;;;;;1.10;84.80;;;;;;5055055;28;19958;-85
2023/01/25 06:36:06;;;;;;;;;;;1.20;84.80;;;;;;5052075;28;19959;-82
2023/01/25 06:38:32;;;;;;;;;;;1.20;84.80;;;;;;5045016;28;19921;-82
2023/01/25 06:40:59;;;;;;;;;;;1.10;84.70;;;;;;5063227;28;19920;-81
2023/01/25 06:43:24;;;;;;;;;;;1.10;85.20;;;;;;5060111;28;19927;-82
2023/01/25 06:45:50;;;;;;;;;;;1.30;84.90;;;;;;5050464;28;20003;-84
2023/01/25 06:48:16;;;;;;;;;;;1.20;85.00;;;;;;5048728;28;19920;-82
2023/01/25 06:50:41;;;;;;;;;;;1.10;85.40;;;;;;5064303;28;19942;-82
2023/01/25 06:53:07;;;;;;;;;;;1.20;85.40;;;;;;5045050;28;19913;-82
2023/01/25 06:55:32;;;;;;;;;;;1.20;85.30;;;;;;5055508;28;19973;-82
2023/01/25 06:57:58;;;;;;;;;;;1.30;85.00;;;;;;5068439;28;20294;-83
2023/01/25 07:00:24;;;;;;;;;;;1.20;84.80;;;;;;5040651;28;19928;-83
2023/01/25 07:02:49;;;;;;;;;;;1.20;85.10;;;;;;5059221;28;19920;-83
2023/01/25 07:05:15;;;;;;;;;;;1.20;85.20;;;;;;5044745;28;20042;-81
2023/01/25 07:07:43;;;;;;;;;;;1.20;85.00;;;;;;5060354;28;20057;-84
2023/01/25 07:10:09;;;;;;;;;;;1.10;85.10;;;;;;5058453;28;19923;-83
2023/01/25 07:12:34;;;;;;;;;;;1.20;85.10;;;;;;5068856;28;19920;-81
2023/01/25 07:15:00;;;;;;;;;;;1.20;85.20;;;;;;5074539;28;19923;-81
2023/01/25 07:17:25;;;;;;;;;;;1.20;84.80;;;;;;5067727;28;19962;-81
2023/01/25 07:19:51;;;;;;;;;;;1.20;84.90;;;;;;5063643;28;19913;-81
2023/01/25 07:22:16;;;;;;;;;;;1.20;85.20;;;;;;5060227;28;20567;-81
2023/01/25 07:24:48;;;;;;;;;;;1.20;85.10;;;;;;5067743;28;19927;-80
2023/01/25 07:27:14;;;;;;;;;;;1.20;85.20;;;;;;5066719;28;19912;-81
2023/01/25 07:29:40;;;;;;;;;;;1.30;85.20;;;;;;5068232;28;19919;-81
2023/01/25 07:32:05;;;;;;;;;;;1.30;85.10;;;;;;5052074;28;19928;-81
2023/01/25 07:34:31;;;;;;;;;;;1.20;85.00;;;;;;5055050;28;20006;-81
2023/01/25 07:36:56;;;;;;;;;;;1.20;85.00;;;;;;5082668;28;19916;-81
2023/01/25 07:39:22;;;;;;;;;;;1.20;85.00;;;;;;5066467;28;19916;-81
2023/01/25 07:41:47;;;;;;;;;;;1.20;84.80;;;;;;5048118;28;19921;-81
2023/01/25 07:44:13;;;;;;;;;;;1.20;85.00;;;;;;5061158;28;20386;-81
2023/01/25 07:46:38;;;;;;;;;;;1.30;84.80;;;;;;5072738;28;19917;-82
2023/01/25 07:49:03;;;;;;;;;;;1.20;84.70;;;;;;5069288;28;19921;-83
2023/01/25 07:51:29;;;;;;;;;;;1.20;84.90;;;;;;5048194;28;19921;-82
2023/01/25 07:53:56;;;;;;;;;;;1.10;85.30;;;;;;5062482;28;19921;-81
2023/01/25 07:56:24;;;;;;;;;;;1.10;85.40;;;;;;5067293;28;19924;-81
2023/01/25 07:58:51;;;;;;;;;;;1.20;85.60;;;;;;5051218;28;19912;-81
2023/01/25 08:01:18;;;;;;;;;;;1.30;85.40;;;;;;5049154;28;19916;-82
2023/01/25 08:03:44;;;;;;;;;;;1.30;85.30;;;;;;5066392;28;19939;-82
2023/01/25 08:06:10;;;;;;;;;;;1.30;85.20;;;;;;5045026;28;19916;-82
2023/01/25 08:08:37;;;;;;;;;;;1.20;85.10;;;;;;5057978;28;19913;-82
2023/01/25 08:11:11;;;;;;;;;;;1.10;85.40;;;;;;5062194;28;20004;-82
2023/01/25 08:13:37;;;;;;;;;;;1.10;85.40;;;;;;5073786;28;19995;-82
2023/01/25 08:16:03;;;;;;;;;;;1.10;85.70;;;;;;5054266;28;20402;-82
2023/01/25 08:18:28;;;;;;;;;;;1.10;85.40;;;;;;5049432;28;20401;-82
2023/01/25 08:20:56;;;;;;;;;;;1.10;85.90;;;;;;5045186;28;19917;-82
2023/01/25 08:23:23;;;;;;;;;;;1.10;85.80;;;;;;5068267;28;20015;-81
2023/01/25 08:25:49;;;;;;;;;;;1.10;86.10;;;;;;5054998;28;20439;-82
2023/01/25 08:28:15;;;;;;;;;;;1.10;85.90;;;;;;5065868;28;19995;-82
2023/01/25 08:30:40;;;;;;;;;;;1.00;85.80;;;;;;5061450;28;19921;-82
2023/01/25 08:33:05;;;;;;;;;;;1.00;85.90;;;;;;5068982;28;20074;-81
2023/01/25 08:35:31;;;;;;;;;;;1.00;86.40;;;;;;5050393;28;19921;-82
2023/01/25 08:37:56;;;;;;;;;;;0.90;86.30;;;;;;5073949;28;19912;-82
2023/01/25 08:40:22;;;;;;;;;;;1.00;86.40;;;;;;5060844;28;19917;-80
2023/01/25 08:42:47;;;;;;;;;;;1.00;86.50;;;;;;5066589;28;20401;-80
2023/01/25 08:45:13;;;;;;;;;;;1.00;86.50;;;;;;5076088;28;20385;-81
2023/01/25 08:47:38;;;;;;;;;;;0.90;86.40;;;;;;5069275;28;19966;-81
2023/01/25 08:50:04;;;;;;;;;;;1.00;86.70;;;;;;5070015;28;19974;-82
2023/01/25 08:52:29;;;;;;;;;;;1.00;86.70;;;;;;5075944;28;19970;-82
2023/01/25 08:54:55;;;;;;;;;;;1.00;86.60;;;;;;5055226;28;19920;-82
2023/01/25 08:57:21;;;;;;;;;;;0.90;86.60;;;;;;5067106;28;19923;-82
2023/01/25 08:59:46;;;;;;;;;;;0.90;86.90;;;;;;5054429;28;19913;-82
2023/01/25 09:02:12;;;;;;;;;;;0.90;87.30;;;;;;5062852;28;19912;-82
2023/01/25 09:04:37;;;;;;;;;;;1.00;87.00;;;;;;5072639;28;19912;-82
2023/01/25 09:07:03;;;;;;;;;;;1.10;86.90;;;;;;5054374;28;19913;-81
2023/01/25 09:09:29;;;;;;;;;;;1.20;86.50;;;;;;5067104;28;19917;-81
2023/01/25 09:11:55;;;;;;;;;;;1.20;86.40;;;;;;5054478;28;20404;-82
2023/01/25 09:14:20;;;;;;;;;;;1.10;86.40;;;;;;5048956;28;20012;-82
2023/01/25 09:16:46;;;;;;;;;;;1.10;86.30;;;;;;5051877;28;20007;-81
2023/01/25 09:19:12;;;;;;;;;;;1.10;86.30;;;;;;5070176;28;20310;-81
2023/01/25 09:21:38;;;;;;;;;;;1.10;86.30;;;;;;5068435;28;19920;-83
2023/01/25 09:24:04;;;;;;;;;;;1.10;86.10;;;;;;5064150;28;19967;-81
2023/01/25 09:26:29;;;;;;;;;;;1.10;85.60;;;;;;5062865;28;20258;-83
2023/01/25 09:28:55;;;;;;;;;;;1.20;85.80;;;;;;5050908;28;20389;-82
2023/01/25 09:31:20;;;;;;;;;;;1.10;85.50;;;;;;5049194;28;19988;-81
2023/01/25 09:33:46;;;;;;;;;;;1.10;85.60;;;;;;5071357;28;19916;-81
2023/01/25 09:36:12;;;;;;;;;;;1.20;85.70;;;;;;5069605;28;19917;-83
2023/01/25 09:38:37;;;;;;;;;;;1.20;86.00;;;;;;5053820;28;20358;-82
2023/01/25 09:41:03;;;;;;;;;;;1.30;86.00;;;;;;5069651;28;19916;-81
2023/01/25 09:43:42;;;;;;;;;;;1.20;85.90;;;;;;5045712;28;19913;-80
2023/01/25 09:46:15;;;;;;;;;;;1.20;86.20;;;;;;5051600;28;19946;-81
2023/01/25 09:48:45;;;;;;;;;;;1.10;86.00;;;;;;5072260;28;19931;-81
2023/01/25 09:51:19;;;;;;;;;;;1.20;86.00;;;;;;5063885;28;19916;-81
2023/01/25 09:53:49;;;;;;;;;;;1.20;86.00;;;;;;5046044;28;20367;-81
2023/01/25 09:56:23;;;;;;;;;;;1.10;85.90;;;;;;5069582;28;19920;-81
2023/01/25 09:58:50;;;;;;;;;;;1.20;86.00;;;;;;5051976;28;19920;-81
2023/01/25 10:01:20;;;;;;;;;;;1.30;86.30;;;;;;5071306;28;19919;-81
2023/01/25 10:03:46;;;;;;;;;;;1.30;86.10;;;;;;5074923;28;19901;-81
2023/01/25 10:06:12;;;;;;;;;;;1.30;85.80;;;;;;5068866;28;19913;-81
2023/01/25 10:08:47;;;;;;;;;;;1.30;85.80;;;;;;5049671;28;19913;-81
2023/01/25 10:11:19;;;;;;;;;;;1.30;85.80;;;;;;5049644;28;19913;-82
2023/01/25 10:13:45;;;;;;;;;;;1.40;85.60;;;;;;5072264;28;19923;-81
2023/01/25 10:16:25;;;;;;;;;;;1.30;85.40;;;;;;5070128;28;19916;-80
2023/01/25 10:18:57;;;;;;;;;;;1.30;85.20;;;;;;5069973;28;19945;-83
2023/01/25 10:21:26;;;;;;;;;;;1.50;84.70;;;;;;5056614;28;19970;-82
2023/01/25 10:24:01;;;;;;;;;;;1.50;84.30;;;;;;5057125;28;20369;-82
2023/01/25 10:26:28;;;;;;;;;;;1.60;84.60;;;;;;5069753;28;19913;-82
2023/01/25 10:29:03;;;;;;;;;;;1.50;84.60;;;;;;5070094;28;19917;-82
2023/01/25 10:31:28;;;;;;;;;;;1.60;84.90;;;;;;5057955;28;19917;-82
2023/01/25 10:33:55;;;;;;;;;;;1.60;84.70;;;;;;5053528;28;20386;-83
2023/01/25 10:36:22;;;;;;;;;;;1.60;84.80;;;;;;5069143;28;19923;-82
2023/01/25 10:38:57;;;;;;;;;;;1.50;84.80;;;;;;5066991;28;20312;-83
2023/01/25 10:41:33;;;;;;;;;;;1.60;85.20;;;;;;5046567;28;20362;-83
2023/01/25 10:46:46;;;;;;;;;;;1.50;85.20;;;;;;5068824;28;19919;-83
2023/01/25 10:49:23;;;;;;;;;;;1.40;84.90;;;;;;5063382;28;19920;-82
2023/01/25 10:51:49;;;;;;;;;;;1.50;85.30;;;;;;5066398;28;19913;-82
2023/01/25 10:54:15;;;;;;;;;;;1.50;85.30;;;;;;5070575;28;19916;-82
2023/01/25 10:56:41;;;;;;;;;;;1.60;85.10;;;;;;5066161;28;19927;-82
2023/01/25 10:59:15;;;;;;;;;;;1.50;85.00;;;;;;5065141;28;19908;-81
2023/01/25 11:01:41;;;;;;;;;;;1.50;85.00;;;;;;5068680;28;20578;-83
2023/01/25 11:04:26;;;;;;;;;;;1.40;84.90;;;;;;5054565;28;19912;-82
2023/01/25 11:06:52;;;;;;;;;;;1.30;84.90;;;;;;5049011;28;20275;-83
2023/01/25 11:09:20;;;;;;;;;;;1.40;84.80;;;;;;5064676;28;19915;-83
2023/01/25 11:11:55;;;;;;;;;;;1.40;84.50;;;;;;5073958;28;19954;-83
2023/01/25 11:14:22;;;;;;;;;;;1.30;84.50;;;;;;5070467;28;19916;-82
2023/01/25 11:16:47;;;;;;;;;;;1.30;84.70;;;;;;5054711;28;19923;-82
2023/01/25 11:19:32;;;;;;;;;;;1.30;84.80;;;;;;5068134;28;19913;-82
2023/01/25 11:21:58;;;;;;;;;;;1.30;84.80;;;;;;5059288;28;19939;-82
2023/01/25 11:24:25;;;;;;;;;;;1.30;84.90;;;;;;5059851;28;19923;-83
2023/01/25 11:27:09;;;;;;;;;;;1.40;84.80;;;;;;5065750;28;20396;-81
2023/01/25 11:29:35;;;;;;;;;;;1.40;84.60;;;;;;5070940;28;19913;-81
2023/01/25 11:32:02;;;;;;;;;;;1.40;84.50;;;;;;5050350;28;19935;-80
2023/01/25 11:34:28;;;;;;;;;;;1.40;84.70;;;;;;5065798;28;19913;-79
2023/01/25 11:37:05;;;;;;;;;;;1.60;84.80;;;;;;5071203;28;19939;-79
2023/01/25 11:39:34;;;;;;;;;;;1.60;84.20;;;;;;5056395;28;19917;-79
2023/01/25 11:42:05;;;;;;;;;;;1.60;84.00;;;;;;5052311;28;19920;-79
2023/01/25 11:44:42;;;;;;;;;;;1.60;84.40;;;;;;5069545;28;19920;-80
2023/01/25 11:47:11;;;;;;;;;;;1.70;84.20;;;;;;5047738;28;19943;-80
2023/01/25 11:49:55;;;;;;;;;;;1.70;83.60;;;;;;5070392;28;19917;-80
2023/01/25 11:52:35;;;;;;;;;;;1.70;83.90;;;;;;5067582;28;19975;-80
2023/01/25 11:55:15;;;;;;;;;;;1.60;83.30;;;;;;5068522;28;20000;-80
2023/01/25 11:57:41;;;;;;;;;;;1.50;83.90;;;;;;5051989;28;19924;-80
2023/01/25 12:00:25;;;;;;;;;;;1.50;84.30;;;;;;5043361;28;19913;-80
2023/01/25 12:03:05;;;;;;;;;;;1.60;84.20;;;;;;5069245;28;19917;-80
2023/01/25 12:05:37;;;;;;;;;;;1.50;84.40;;;;;;5070488;28;19912;-80
2023/01/25 12:08:15;;;;;;;;;;;1.50;83.80;;;;;;5069103;28;20645;-80
2023/01/25 12:10:53;;;;;;;;;;;1.50;83.90;;;;;;5065205;28;19987;-80
2023/01/25 12:15:58;;;;;;;;;;;1.50;83.70;;;;;;5100096;22;19958;-82
2023/01/25 12:18:43;;;;;;;;;;;1.50;83.30;;;;;;5051493;28;19960;-83
2023/01/25 12:21:18;;;;;;;;;;;1.60;83.30;;;;;;5056248;28;19966;-83
2023/01/25 12:23:46;;;;;;;;;;;1.50;82.90;;;;;;5054342;28;20285;-81
2023/01/25 12:26:19;;;;;;;;;;;1.50;83.10;;;;;;5038828;28;19948;-82
2023/01/25 12:29:04;;;;;;;;;;;1.50;83.30;;;;;;5044057;28;19916;-82
2023/01/25 12:31:49;;;;;;;;;;;1.50;83.40;;;;;;5056062;28;20273;-82
2023/01/25 12:34:18;;;;;;;;;;;1.60;83.70;;;;;;5037359;28;19958;-82
2023/01/25 12:36:45;;;;;;;;;;;1.60;83.40;;;;;;5041341;28;19920;-82
2023/01/25 12:39:10;;;;;;;;;;;1.70;83.30;;;;;;5042570;28;19916;-82
2023/01/25 12:41:45;;;;;;;;;;;1.70;83.50;;;;;;5034114;28;20100;-83
2023/01/25 12:44:14;;;;;;;;;;;1.70;83.40;;;;;;5054026;28;20293;-82
2023/01/25 12:46:44;;;;;;;;;;;1.60;83.50;;;;;;5033771;28;20368;-82
2023/01/25 12:49:27;;;;;;;;;;;1.60;83.60;;;;;;5060732;28;19916;-82
2023/01/25 12:51:54;;;;;;;;;;;1.60;83.90;;;;;;5052268;28;20076;-82
2023/01/25 12:54:29;;;;;;;;;;;1.60;83.60;;;;;;5055792;28;19913;-83
2023/01/25 12:57:14;;;;;;;;;;;1.60;84.00;;;;;;5030279;28;19924;-82
2023/01/25 12:59:46;;;;;;;;;;;1.60;84.00;;;;;;5035172;28;19921;-82
2023/01/25 13:02:30;;;;;;;;;;;1.60;83.50;;;;;;5055746;28;20016;-82
2023/01/25 13:05:14;;;;;;;;;;;1.60;83.30;;;;;;5033525;28;19916;-82
2023/01/25 13:07:53;;;;;;;;;;;1.50;84.00;;;;;;5052107;28;20377;-83
2023/01/25 13:10:37;;;;;;;;;;;1.60;84.00;;;;;;5036913;28;19909;-82
2023/01/25 13:13:16;;;;;;;;;;;1.50;83.70;;;;;;5050915;28;19913;-82
2023/01/25 13:15:43;;;;;;;;;;;1.50;83.50;;;;;;5034064;28;20439;-83
2023/01/25 13:18:27;;;;;;;;;;;1.40;83.90;;;;;;5034073;28;20030;-82
2023/01/25 13:20:54;;;;;;;;;;;1.40;83.70;;;;;;5051770;28;19920;-82
2023/01/25 13:23:33;;;;;;;;;;;1.30;84.30;;;;;;5030793;28;19996;-82
2023/01/25 13:26:17;;;;;;;;;;;1.40;84.00;;;;;;5046615;28;19984;-81
2023/01/25 13:28:46;;;;;;;;;;;1.40;84.20;;;;;;5048153;28;20101;-81
2023/01/25 13:31:31;;;;;;;;;;;1.50;84.10;;;;;;5030630;28;20316;-82
2023/01/25 13:33:59;;;;;;;;;;;1.50;84.20;;;;;;5038487;28;19944;-82
2023/01/25 13:36:39;;;;;;;;;;;1.50;83.80;;;;;;5050246;28;19917;-81
2023/01/25 13:39:24;;;;;;;;;;;1.50;83.50;;;;;;5037886;28;20407;-79
2023/01/25 13:42:07;;;;;;;;;;;1.40;83.30;;;;;;5037547;28;19913;-81
2023/01/25 13:44:37;;;;;;;;;;;1.50;83.50;;;;;;5049168;28;20302;-80
2023/01/25 13:47:04;;;;;;;;;;;1.40;83.30;;;;;;5053947;28;19917;-79
2023/01/25 13:49:34;;;;;;;;;;;1.40;83.60;;;;;;5057216;28;20368;-79
2023/01/25 13:52:00;;;;;;;;;;;1.50;83.70;;;;;;5033193;28;19916;-81
2023/01/25 13:54:25;;;;;;;;;;;1.40;83.90;;;;;;5040541;28;19978;-81
2023/01/25 13:57:10;;;;;;;;;;;1.50;83.60;;;;;;5059398;28;19924;-80
2023/01/25 13:59:36;;;;;;;;;;;1.40;83.70;;;;;;5051007;28;20820;-80
2023/01/25 14:02:01;;;;;;;;;;;1.40;83.90;;;;;;5036446;28;19927;-80
2023/01/25 14:04:30;;;;;;;;;;;1.40;83.60;;;;;;5061980;28;20292;-80
2023/01/25 14:06:56;;;;;;;;;;;1.40;84.00;;;;;;5062464;28;19947;-79
2023/01/25 14:09:23;;;;;;;;;;;1.50;84.00;;;;;;5064766;28;19913;-83
2023/01/25 14:11:48;;;;;;;;;;;1.50;83.90;;;;;;5051048;28;20012;-82
2023/01/25 14:14:27;;;;;;;;;;;1.60;83.50;;;;;;5053356;28;19936;-83
2023/01/25 14:17:02;;;;;;;;;;;1.60;83.20;;;;;;5041592;28;20241;-84
2023/01/25 14:19:28;;;;;;;;;;;1.50;83.00;;;;;;5029502;28;19917;-82
2023/01/25 14:22:13;;;;;;;;;;;1.60;83.50;;;;;;5025475;28;20271;-83
2023/01/25 14:24:38;;;;;;;;;;;1.60;83.10;;;;;;5056449;28;19924;-81
2023/01/25 14:27:04;;;;;;;;;;;1.60;83.20;;;;;;5047500;28;19908;-82
2023/01/25 14:29:31;;;;;;;;;;;1.60;83.20;;;;;;5049692;28;19931;-81
2023/01/25 14:31:56;;;;;;;;;;;1.60;83.00;;;;;;5051899;28;19961;-83
2023/01/25 14:34:24;;;;;;;;;;;1.60;83.10;;;;;;5042783;28;19991;-82
2023/01/25 14:37:03;;;;;;;;;;;1.60;83.20;;;;;;5036951;28;20170;-79
2023/01/25 14:39:28;;;;;;;;;;;1.60;83.40;;;;;;5060370;28;19917;-78
2023/01/25 14:41:55;;;;;;;;;;;1.60;83.10;;;;;;5046307;28;19923;-79
2023/01/25 14:44:21;;;;;;;;;;;1.60;83.30;;;;;;5060247;28;19912;-81